createdAt,value
2022-10-10T00:01:16.157Z,13.07
2022-10-10T00:03:43.644Z,13.05
2022-10-10T00:06:11.409Z,13.03
2022-10-10T00:08:38.311Z,13.00
2022-10-10T00:11:05.530Z,12.98
2022-10-10T00:13:32.635Z,12.94
2022-10-10T00:15:59.405Z,12.93
2022-10-10T00:18:26.159Z,12.92
2022-10-10T00:20:53.455Z,12.91
2022-10-10T00:23:20.619Z,12.91
2022-10-10T00:25:48.032Z,12.89
2022-10-10T00:28:15.278Z,12.86
2022-10-10T00:30:42.280Z,12.85
2022-10-10T00:33:09.091Z,12.82
2022-10-10T00:35:36.372Z,12.81
2022-10-10T00:38:03.168Z,12.79
2022-10-10T00:40:30.283Z,12.77
2022-10-10T00:42:57.052Z,12.74
2022-10-10T00:45:38.512Z,12.72
2022-10-10T00:48:20.835Z,12.70
2022-10-10T00:50:54.491Z,12.66
2022-10-10T00:53:24.226Z,12.65
2022-10-10T00:55:51.444Z,12.62
2022-10-10T00:58:18.597Z,12.62
2022-10-10T01:00:45.386Z,12.58
2022-10-10T01:03:12.209Z,12.56
2022-10-10T01:05:39.454Z,12.55
2022-10-10T01:08:06.685Z,12.52
2022-10-10T01:10:36.445Z,12.52
2022-10-10T01:13:11.433Z,12.49
2022-10-10T01:15:58.012Z,12.49
2022-10-10T01:18:38.613Z,12.47
2022-10-10T01:21:17.660Z,12.44
2022-10-10T01:24:02.181Z,12.42
2022-10-10T01:27:09.169Z,12.41
2022-10-10T01:29:45.641Z,12.39
2022-10-10T01:32:39.856Z,12.38
2022-10-10T01:35:10.697Z,12.35
2022-10-10T01:37:44.057Z,12.35
2022-10-10T01:40:32.479Z,12.35
2022-10-10T01:43:02.173Z,12.33
2022-10-10T01:45:31.323Z,12.31
2022-10-10T01:48:02.816Z,12.31
2022-10-10T01:50:30.352Z,12.30
2022-10-10T01:53:09.788Z,12.30
2022-10-10T01:55:46.689Z,12.30
2022-10-10T01:58:21.603Z,12.28
2022-10-10T02:01:21.639Z,12.28
2022-10-10T02:03:59.135Z,12.26
2022-10-10T02:06:32.655Z,12.24
2022-10-10T02:09:04.531Z,12.25
2022-10-10T02:11:35.495Z,12.24
2022-10-10T02:14:14.566Z,12.23
2022-10-10T02:16:42.997Z,12.22
2022-10-10T02:19:10.983Z,12.21
2022-10-10T02:21:39.104Z,12.21
2022-10-10T02:24:07.201Z,12.21
2022-10-10T02:26:36.939Z,12.22
2022-10-10T02:29:17.806Z,12.21
2022-10-10T02:31:50.359Z,12.21
2022-10-10T02:34:19.347Z,12.20
2022-10-10T02:36:51.482Z,12.20
2022-10-10T02:39:22.632Z,12.19
2022-10-10T02:41:50.851Z,12.19
2022-10-10T02:44:18.074Z,12.17
2022-10-10T02:46:44.914Z,12.16
2022-10-10T02:49:11.894Z,12.16
2022-10-10T02:51:39.465Z,12.16
2022-10-10T02:54:07.068Z,12.15
2022-10-10T02:56:33.783Z,12.15
2022-10-10T02:59:00.481Z,12.13
2022-10-10T03:01:27.322Z,12.12
2022-10-10T03:03:54.106Z,12.10
2022-10-10T03:06:20.849Z,12.10
2022-10-10T03:08:49.813Z,12.10
2022-10-10T03:11:16.532Z,12.09
2022-10-10T03:13:43.255Z,12.08
2022-10-10T03:16:11.137Z,12.08
2022-10-10T03:18:40.205Z,12.03
2022-10-10T03:21:14.298Z,12.04
2022-10-10T03:23:44.757Z,12.01
2022-10-10T03:26:11.573Z,11.99
2022-10-10T03:28:38.340Z,11.95
2022-10-10T03:31:05.289Z,11.94
2022-10-10T03:33:32.017Z,11.92
2022-10-10T03:35:58.821Z,11.92
2022-10-10T03:38:25.517Z,11.90
2022-10-10T03:40:52.261Z,11.90
2022-10-10T03:43:19.032Z,11.87
2022-10-10T03:45:47.580Z,11.85
2022-10-10T03:48:14.503Z,11.85
2022-10-10T03:50:44.439Z,11.84
2022-10-10T03:53:11.292Z,11.83
2022-10-10T03:55:44.891Z,11.83
2022-10-10T03:58:11.704Z,11.83
2022-10-10T04:00:38.458Z,11.82
2022-10-10T04:03:06.514Z,11.81
2022-10-10T04:05:34.766Z,11.81
2022-10-10T04:08:01.736Z,11.80
2022-10-10T04:10:28.455Z,11.80
2022-10-10T04:12:55.340Z,11.78
2022-10-10T04:15:22.034Z,11.78
2022-10-10T04:17:48.790Z,11.78
2022-10-10T04:20:15.566Z,11.77
2022-10-10T04:22:42.710Z,11.76
2022-10-10T04:25:09.808Z,11.75
2022-10-10T04:27:45.513Z,11.75
2022-10-10T04:30:12.895Z,11.74
2022-10-10T04:32:39.674Z,11.72
2022-10-10T04:35:06.727Z,11.72
2022-10-10T04:37:34.127Z,11.71
2022-10-10T04:40:00.937Z,11.69
2022-10-10T04:42:27.643Z,11.69
2022-10-10T04:44:54.697Z,11.68
2022-10-10T04:47:23.755Z,11.67
2022-10-10T04:49:50.470Z,11.65
2022-10-10T04:52:17.195Z,11.65
2022-10-10T04:54:43.934Z,11.63
2022-10-10T04:57:13.610Z,11.61
2022-10-10T04:59:40.318Z,11.60
2022-10-10T05:02:07.136Z,11.59
2022-10-10T05:04:33.902Z,11.59
2022-10-10T05:07:00.688Z,11.59
2022-10-10T05:09:27.398Z,11.60
2022-10-10T05:11:54.163Z,11.57
2022-10-10T05:14:20.900Z,11.58
2022-10-10T05:16:47.630Z,11.56
2022-10-10T05:19:14.461Z,11.56
2022-10-10T05:21:41.217Z,11.55
2022-10-10T05:24:07.904Z,11.56
2022-10-10T05:26:35.533Z,11.56
2022-10-10T05:29:05.823Z,11.55
2022-10-10T05:31:33.694Z,11.55
2022-10-10T05:34:00.645Z,11.54
2022-10-10T05:36:27.557Z,11.54
2022-10-10T05:38:54.242Z,11.54
2022-10-10T05:41:21.036Z,11.52
2022-10-10T05:43:47.746Z,11.51
2022-10-10T05:46:14.498Z,11.52
2022-10-10T05:48:41.175Z,11.50
2022-10-10T05:51:07.897Z,11.51
2022-10-10T05:53:34.650Z,11.51
2022-10-10T05:56:01.978Z,11.51
2022-10-10T05:58:28.726Z,11.52
2022-10-10T06:00:55.450Z,11.52
2022-10-10T06:03:22.164Z,11.53
2022-10-10T06:05:51.352Z,11.57
2022-10-10T06:08:18.092Z,11.57
2022-10-10T06:10:46.155Z,11.59
2022-10-10T06:13:14.366Z,11.62
2022-10-10T06:15:41.337Z,11.64
2022-10-10T06:18:08.760Z,11.66
2022-10-10T06:20:39.446Z,11.68
2022-10-10T06:23:07.658Z,11.69
2022-10-10T06:25:40.647Z,11.73
2022-10-10T06:28:08.054Z,11.76
2022-10-10T06:30:38.892Z,11.78
2022-10-10T06:33:05.623Z,11.82
2022-10-10T06:35:32.317Z,11.85
2022-10-10T06:37:59.072Z,11.87
2022-10-10T06:40:25.829Z,11.92
2022-10-10T06:42:52.970Z,11.96
2022-10-10T06:45:19.927Z,11.99
2022-10-10T06:47:46.655Z,12.03
2022-10-10T06:50:13.365Z,12.08
2022-10-10T06:52:40.863Z,12.13
2022-10-10T06:55:08.076Z,12.20
2022-10-10T06:57:34.904Z,12.25
2022-10-10T07:00:01.646Z,12.31
2022-10-10T07:02:28.570Z,12.38
2022-10-10T07:04:55.353Z,12.45
2022-10-10T07:07:22.077Z,12.50
2022-10-10T07:09:48.972Z,12.59
2022-10-10T07:12:15.764Z,12.66
2022-10-10T07:14:42.469Z,12.75
2022-10-10T07:17:09.175Z,12.89
2022-10-10T07:19:37.733Z,13.05
2022-10-10T07:22:04.924Z,13.20
2022-10-10T07:24:31.672Z,13.32
2022-10-10T07:27:03.679Z,13.47
2022-10-10T07:29:34.729Z,13.59
2022-10-10T07:32:01.425Z,13.69
2022-10-10T07:34:28.228Z,13.77
2022-10-10T07:36:54.987Z,13.85
2022-10-10T07:39:25.078Z,13.93
2022-10-10T07:41:52.140Z,13.99
2022-10-10T07:44:19.884Z,14.05
2022-10-10T07:46:47.091Z,14.13
2022-10-10T07:49:13.828Z,14.23
2022-10-10T07:51:40.517Z,14.29
2022-10-10T07:54:07.227Z,14.36
2022-10-10T07:56:33.983Z,14.41
2022-10-10T07:59:00.994Z,14.48
2022-10-10T08:01:27.888Z,14.53
2022-10-10T08:04:00.484Z,14.60
2022-10-10T08:06:27.284Z,14.66
2022-10-10T08:08:54.034Z,14.73
2022-10-10T08:11:21.917Z,14.80
2022-10-10T08:13:49.607Z,14.86
2022-10-10T08:16:16.604Z,14.93
2022-10-10T08:18:43.313Z,14.99
2022-10-10T08:21:12.563Z,15.05
2022-10-10T08:23:39.753Z,15.09
2022-10-10T08:26:08.423Z,15.16
2022-10-10T08:28:36.331Z,15.23
2022-10-10T08:31:13.834Z,15.29
2022-10-10T08:33:42.522Z,15.36
2022-10-10T08:36:11.768Z,15.46
2022-10-10T08:38:41.789Z,15.53
2022-10-10T08:41:42.812Z,15.63
2022-10-10T08:44:23.841Z,15.72
2022-10-10T08:47:03.514Z,15.81
2022-10-10T08:49:44.549Z,15.89
2022-10-10T08:52:32.835Z,15.94
2022-10-10T08:55:02.546Z,16.01
2022-10-10T08:57:33.549Z,16.07
2022-10-10T09:00:05.780Z,16.13
2022-10-10T09:02:53.189Z,16.19
2022-10-10T09:05:27.511Z,16.24
2022-10-10T09:08:34.152Z,16.28
2022-10-10T09:11:22.619Z,16.31
2022-10-10T09:13:52.337Z,16.34
2022-10-10T09:16:44.032Z,16.36
2022-10-10T09:19:28.600Z,16.39
2022-10-10T09:21:57.858Z,16.42
2022-10-10T09:24:26.019Z,16.45
2022-10-10T09:26:56.555Z,16.49
2022-10-10T09:29:32.891Z,16.53
2022-10-10T09:32:21.399Z,16.56
2022-10-10T09:34:51.060Z,16.59
2022-10-10T09:37:35.556Z,16.64
2022-10-10T09:40:28.662Z,16.69
2022-10-10T09:42:56.394Z,16.73
2022-10-10T09:45:28.373Z,16.75
2022-10-10T09:47:55.910Z,16.81
2022-10-10T09:50:23.803Z,16.83
2022-10-10T09:52:51.836Z,16.88
2022-10-10T09:55:24.453Z,16.92
2022-10-10T09:57:56.789Z,16.95
2022-10-10T10:00:29.763Z,16.99
2022-10-10T10:03:15.090Z,17.04
2022-10-10T10:05:45.000Z,17.07
2022-10-10T10:08:19.828Z,17.10
2022-10-10T10:10:46.630Z,17.12
2022-10-10T10:13:23.774Z,17.16
2022-10-10T10:15:55.431Z,17.20
2022-10-10T10:18:28.760Z,17.22
2022-10-10T10:21:08.097Z,17.27
2022-10-10T10:23:43.915Z,17.30
2022-10-10T10:26:37.077Z,17.32
2022-10-10T10:29:05.993Z,17.36
2022-10-10T10:31:44.844Z,17.40
2022-10-10T10:34:25.861Z,17.45
2022-10-10T10:37:10.407Z,17.50
2022-10-10T10:39:52.823Z,17.55
2022-10-10T10:42:27.459Z,17.59
2022-10-10T10:45:09.877Z,17.63
2022-10-10T10:47:54.998Z,17.68
2022-10-10T10:50:47.010Z,17.72
2022-10-10T10:53:41.345Z,17.76
2022-10-10T10:56:38.163Z,17.80
2022-10-10T11:02:07.240Z,17.88
2022-10-10T11:05:18.787Z,17.92
2022-10-10T11:07:46.074Z,17.98
2022-10-10T11:10:37.188Z,18.01
2022-10-10T11:13:10.010Z,18.06
2022-10-10T11:16:06.165Z,18.11
2022-10-10T11:18:43.607Z,18.16
2022-10-10T11:21:25.177Z,18.20
2022-10-10T11:24:03.264Z,18.25
2022-10-10T11:26:33.007Z,18.30
2022-10-10T11:29:42.871Z,18.35
2022-10-10T11:32:15.922Z,18.42
2022-10-10T11:34:55.486Z,18.50
2022-10-10T11:37:26.050Z,18.55
2022-10-10T11:39:55.896Z,18.60
2022-10-10T11:42:23.395Z,18.66
2022-10-10T11:44:57.329Z,18.72
2022-10-10T11:47:38.053Z,18.78
2022-10-10T11:50:18.904Z,18.85
2022-10-10T11:53:23.374Z,18.92
2022-10-10T11:55:56.048Z,18.94
2022-10-10T11:58:34.861Z,18.99
2022-10-10T12:01:12.147Z,19.04
2022-10-10T12:03:38.910Z,19.10
2022-10-10T12:06:22.282Z,19.15
2022-10-10T12:09:03.882Z,19.18
2022-10-10T12:11:43.651Z,19.22
2022-10-10T12:14:14.768Z,19.27
2022-10-10T12:16:43.727Z,19.31
2022-10-10T12:19:19.791Z,19.37
2022-10-10T12:21:54.412Z,19.40
2022-10-10T12:24:21.481Z,19.42
2022-10-10T12:26:57.393Z,19.45
2022-10-10T12:30:09.215Z,19.47
2022-10-10T12:32:46.492Z,19.48
2022-10-10T12:35:33.107Z,19.52
2022-10-10T12:38:06.151Z,19.53
2022-10-10T12:40:34.144Z,19.56
2022-10-10T12:43:18.617Z,19.57
2022-10-10T12:46:16.379Z,19.59
2022-10-10T12:48:43.660Z,19.61
2022-10-10T12:51:22.112Z,19.67
2022-10-10T12:56:43.750Z,19.77
2022-10-10T12:59:19.928Z,19.85
2022-10-10T13:01:52.304Z,19.92
2022-10-10T13:04:19.447Z,19.96
2022-10-10T13:06:47.163Z,20.03
2022-10-10T13:09:20.565Z,20.08
2022-10-10T13:11:59.602Z,20.15
2022-10-10T13:14:36.485Z,20.20
2022-10-10T13:17:11.264Z,20.23
2022-10-10T13:19:50.027Z,20.26
2022-10-10T13:22:17.482Z,20.30
2022-10-10T13:24:45.417Z,20.34
2022-10-10T13:27:18.529Z,20.35
2022-10-10T13:29:45.494Z,20.37
2022-10-10T13:32:15.433Z,20.39
2022-10-10T13:34:49.440Z,20.44
2022-10-10T13:37:17.874Z,20.46
2022-10-10T13:39:45.079Z,20.50
2022-10-10T13:42:31.713Z,20.53
2022-10-10T13:45:05.636Z,20.54
2022-10-10T13:47:52.039Z,20.54
2022-10-10T13:50:21.839Z,20.55
2022-10-10T13:52:48.624Z,20.58
2022-10-10T13:55:40.511Z,20.59
2022-10-10T13:58:15.790Z,20.63
2022-10-10T14:00:42.748Z,20.66
2022-10-10T14:03:18.754Z,20.69
2022-10-10T14:05:48.422Z,20.72
2022-10-10T14:08:25.641Z,20.76
2022-10-10T14:11:02.162Z,20.80
2022-10-10T14:13:33.733Z,20.83
2022-10-10T14:16:18.812Z,20.85
2022-10-10T14:18:46.165Z,20.83
2022-10-10T14:21:15.602Z,20.82
2022-10-10T14:23:42.318Z,20.81
2022-10-10T14:26:15.843Z,20.82
2022-10-10T14:28:43.005Z,20.82
2022-10-10T14:31:17.854Z,20.84
2022-10-10T14:33:44.594Z,20.85
2022-10-10T14:36:12.045Z,20.85
2022-10-10T14:38:41.433Z,20.88
2022-10-10T14:41:10.255Z,20.88
2022-10-10T14:43:37.054Z,20.88
2022-10-10T14:46:03.943Z,20.87
2022-10-10T14:48:30.864Z,20.86
2022-10-10T14:50:57.581Z,20.84
2022-10-10T14:53:24.492Z,20.82
2022-10-10T14:55:55.948Z,20.80
2022-10-10T14:58:23.248Z,20.77
2022-10-10T15:00:54.048Z,20.73
2022-10-10T15:03:24.776Z,20.69
2022-10-10T15:05:51.590Z,20.66
2022-10-10T15:08:19.381Z,20.62
2022-10-10T15:10:46.654Z,20.59
2022-10-10T15:13:14.104Z,20.59
2022-10-10T15:15:41.414Z,20.57
2022-10-10T15:18:25.659Z,20.56
2022-10-10T15:21:02.012Z,20.53
2022-10-10T15:23:34.261Z,20.52
2022-10-10T15:26:01.233Z,20.52
2022-10-10T15:28:28.113Z,20.51
2022-10-10T15:30:55.024Z,20.48
2022-10-10T15:33:21.867Z,20.48
2022-10-10T15:36:08.989Z,20.46
2022-10-10T15:38:37.344Z,20.45
2022-10-10T15:41:06.986Z,20.42
2022-10-10T15:43:55.736Z,20.41
2022-10-10T15:46:27.093Z,20.38
2022-10-10T15:48:56.872Z,20.36
2022-10-10T15:51:23.859Z,20.36
2022-10-10T15:53:52.046Z,20.34
2022-10-10T15:56:18.994Z,20.32
2022-10-10T15:58:45.792Z,20.30
2022-10-10T16:01:18.563Z,20.28
2022-10-10T16:03:47.593Z,20.25
2022-10-10T16:06:22.910Z,20.23
2022-10-10T16:08:59.409Z,20.21
2022-10-10T16:11:37.080Z,20.17
2022-10-10T16:14:03.844Z,20.10
2022-10-10T16:16:31.727Z,20.05
2022-10-10T16:18:59.694Z,19.98
2022-10-10T16:21:26.933Z,19.94
2022-10-10T16:23:58.133Z,19.91
2022-10-10T16:26:29.088Z,19.88
2022-10-10T16:28:56.537Z,19.85
2022-10-10T16:31:24.998Z,19.84
2022-10-10T16:33:51.841Z,19.83
2022-10-10T16:36:20.911Z,19.82
2022-10-10T16:38:57.509Z,19.82
2022-10-10T16:41:47.109Z,19.82
2022-10-10T16:44:18.368Z,19.81
2022-10-10T16:46:45.301Z,19.81
2022-10-10T16:49:16.296Z,19.82
2022-10-10T16:51:47.999Z,19.81
2022-10-10T16:54:14.728Z,19.81
2022-10-10T16:56:41.888Z,19.81
2022-10-10T16:59:08.585Z,19.81
2022-10-10T17:02:01.125Z,19.80
2022-10-10T17:04:28.109Z,19.78
2022-10-10T17:06:54.869Z,19.72
2022-10-10T17:09:22.796Z,19.60
2022-10-10T17:11:51.472Z,19.53
2022-10-10T17:14:20.018Z,19.46
2022-10-10T17:17:11.012Z,19.41
2022-10-10T17:19:33.767Z,19.37
2022-10-10T17:22:01.231Z,19.34
2022-10-10T17:24:27.978Z,19.33
2022-10-10T17:26:54.739Z,19.31
2022-10-10T17:29:23.512Z,19.28
2022-10-10T17:31:50.292Z,19.27
2022-10-10T17:34:17.017Z,19.27
2022-10-10T17:36:43.741Z,19.26
2022-10-10T17:39:10.452Z,19.22
2022-10-10T17:41:37.300Z,19.16
2022-10-10T17:44:08.386Z,19.13
2022-10-10T17:46:36.621Z,19.05
2022-10-10T17:49:05.120Z,18.97
2022-10-10T17:51:32.655Z,18.89
2022-10-10T17:54:03.469Z,18.82
2022-10-10T17:56:30.647Z,18.75
2022-10-10T17:58:59.258Z,18.71
2022-10-10T18:01:26.203Z,18.64
2022-10-10T18:03:53.030Z,18.57
2022-10-10T18:06:21.558Z,18.54
2022-10-10T18:08:52.394Z,18.50
2022-10-10T18:11:24.608Z,18.46
2022-10-10T18:13:52.001Z,18.46
2022-10-10T18:16:22.775Z,18.45
2022-10-10T18:18:51.660Z,18.40
2022-10-10T18:21:21.092Z,18.36
2022-10-10T18:23:48.261Z,18.35
2022-10-10T18:26:17.290Z,18.35
2022-10-10T18:28:47.029Z,18.33
2022-10-10T18:31:16.632Z,18.32
2022-10-10T18:33:44.804Z,18.31
2022-10-10T18:36:14.198Z,18.30
2022-10-10T18:38:41.030Z,18.28
2022-10-10T18:41:13.369Z,18.26
2022-10-10T18:43:40.703Z,18.24
2022-10-10T18:46:08.587Z,18.23
2022-10-10T18:48:36.068Z,18.24
2022-10-10T18:51:08.464Z,18.24
2022-10-10T18:53:39.728Z,18.25
2022-10-10T18:56:07.430Z,18.26
2022-10-10T18:58:36.044Z,18.25
2022-10-10T19:01:09.071Z,18.26
2022-10-10T19:03:40.065Z,18.25
2022-10-10T19:06:08.817Z,18.21
2022-10-10T19:08:35.541Z,18.19
2022-10-10T19:11:03.408Z,18.14
2022-10-10T19:13:30.683Z,18.10
2022-10-10T19:16:03.884Z,18.08
2022-10-10T19:18:30.645Z,18.04
2022-10-10T19:21:02.499Z,18.00
2022-10-10T19:23:30.153Z,17.97
2022-10-10T19:26:01.910Z,17.97
2022-10-10T19:28:29.210Z,17.96
2022-10-10T19:30:55.977Z,17.96
2022-10-10T19:33:22.954Z,17.96
2022-10-10T19:35:52.156Z,17.94
2022-10-10T19:38:19.220Z,17.96
2022-10-10T19:40:50.193Z,17.95
2022-10-10T19:43:17.681Z,17.94
2022-10-10T19:45:48.710Z,17.90
2022-10-10T19:48:15.761Z,17.88
2022-10-10T19:50:43.824Z,17.86
2022-10-10T19:53:12.939Z,17.84
2022-10-10T19:55:40.878Z,17.82
2022-10-10T19:58:07.685Z,17.80
2022-10-10T20:00:34.417Z,17.78
2022-10-10T20:03:01.145Z,17.75
2022-10-10T20:05:27.949Z,17.70
2022-10-10T20:07:54.659Z,17.68
2022-10-10T20:10:21.582Z,17.64
2022-10-10T20:12:49.140Z,17.63
2022-10-10T20:15:15.893Z,17.60
2022-10-10T20:17:42.605Z,17.58
2022-10-10T20:20:09.508Z,17.55
2022-10-10T20:22:36.215Z,17.54
2022-10-10T20:25:04.368Z,17.48
2022-10-10T20:27:34.125Z,17.43
2022-10-10T20:30:00.824Z,17.36
2022-10-10T20:32:27.549Z,17.30
2022-10-10T20:34:54.225Z,17.24
2022-10-10T20:37:20.937Z,17.21
2022-10-10T20:39:47.830Z,17.15
2022-10-10T20:42:14.678Z,17.10
2022-10-10T20:44:41.622Z,17.04
2022-10-10T20:47:08.301Z,17.00
2022-10-10T20:49:35.007Z,16.96
2022-10-10T20:52:01.745Z,16.91
2022-10-10T20:54:28.435Z,16.87
2022-10-10T20:56:55.165Z,16.83
2022-10-10T20:59:24.271Z,16.80
2022-10-10T21:01:51.120Z,16.76
2022-10-10T21:04:17.897Z,16.73
2022-10-10T21:06:44.655Z,16.70
2022-10-10T21:09:13.817Z,16.66
2022-10-10T21:11:40.681Z,16.63
2022-10-10T21:14:07.673Z,16.59
2022-10-10T21:16:39.446Z,16.57
2022-10-10T21:19:09.205Z,16.53
2022-10-10T21:21:36.607Z,16.50
2022-10-10T21:24:05.641Z,16.47
2022-10-10T21:26:32.873Z,16.43
2022-10-10T21:29:00.808Z,16.40
2022-10-10T21:31:30.080Z,16.37
2022-10-10T21:33:56.994Z,16.34
2022-10-10T21:36:25.140Z,16.32
2022-10-10T21:38:51.953Z,16.29
2022-10-10T21:41:20.308Z,16.26
2022-10-10T21:43:54.946Z,16.23
2022-10-10T21:46:24.229Z,16.19
2022-10-10T21:48:52.816Z,16.18
2022-10-10T21:51:20.392Z,16.13
2022-10-10T21:53:47.579Z,16.10
2022-10-10T21:56:14.499Z,16.06
2022-10-10T21:58:42.691Z,16.02
2022-10-10T22:01:17.336Z,15.99
2022-10-10T22:03:45.777Z,15.95
2022-10-10T22:06:14.730Z,15.94
2022-10-10T22:08:42.328Z,15.91
2022-10-10T22:11:12.618Z,15.88
2022-10-10T22:13:39.538Z,15.87
2022-10-10T22:16:07.915Z,15.83
2022-10-10T22:18:35.519Z,15.80
2022-10-10T22:21:04.403Z,15.79
2022-10-10T22:23:31.141Z,15.76
2022-10-10T22:25:58.106Z,15.73
2022-10-10T22:28:25.065Z,15.71
2022-10-10T22:30:51.800Z,15.68
2022-10-10T22:33:18.493Z,15.67
2022-10-10T22:35:45.265Z,15.63
2022-10-10T22:38:12.012Z,15.61
2022-10-10T22:40:38.729Z,15.59
2022-10-10T22:43:05.482Z,15.56
2022-10-10T22:45:32.188Z,15.53
2022-10-10T22:47:58.956Z,15.53
2022-10-10T22:50:25.644Z,15.51
2022-10-10T22:52:52.343Z,15.48
2022-10-10T22:55:19.181Z,15.47
2022-10-10T22:57:46.128Z,15.45
2022-10-10T23:00:13.517Z,15.42
2022-10-10T23:02:40.238Z,15.41
2022-10-10T23:05:07.452Z,15.39
2022-10-10T23:07:34.494Z,15.37
2022-10-10T23:10:01.253Z,15.35
2022-10-10T23:12:27.977Z,15.34
2022-10-10T23:14:54.770Z,15.31
2022-10-10T23:17:21.488Z,15.30
2022-10-10T23:19:48.212Z,15.27
2022-10-10T23:22:14.961Z,15.26
2022-10-10T23:24:41.774Z,15.23
2022-10-10T23:27:08.499Z,15.23
2022-10-10T23:29:35.273Z,15.20
2022-10-10T23:32:01.989Z,15.19
2022-10-10T23:34:28.755Z,15.15
2022-10-10T23:36:55.472Z,15.15
2022-10-10T23:39:22.344Z,15.12
2022-10-10T23:41:49.079Z,15.11
2022-10-10T23:44:15.853Z,15.08
2022-10-10T23:46:42.545Z,15.07
2022-10-10T23:49:09.771Z,15.06
2022-10-10T23:51:36.529Z,15.04
2022-10-10T23:54:03.274Z,15.01
2022-10-10T23:56:29.969Z,15.01
2022-10-10T23:58:56.716Z,14.98
